ADDS METAR Data INFO
IDs: Format: Raw Decoded Include TAF

Data at: 2148 UTC 15 Dec 2017

KOLY 152135Z AUTO 32004KT 10SM SCT036 04/M05 A3007 RMK AO2 T00361048
KOLY 152115Z AUTO 27008KT 10SM BKN036 BKN043 04/M05 A3007 RMK AO2 T00391050
KOLY 152055Z AUTO 26010KT 10SM BKN034 OVC041 04/M05 A3007 RMK AO2 T00411053
KOLY 152035Z AUTO 27011G14KT 10SM OVC037 04/M05 A3007 RMK AO2 T00411048
KOLY 152015Z AUTO 27009KT 10SM BKN037 OVC046 03/M04 A3006 RMK AO2 T00321045
KOLY 151955Z AUTO 28011G15KT 10SM OVC037 03/M05 A3006 RMK AO2 T00271046
KOLY 151935Z AUTO 27009G15KT 10SM OVC035 03/M05 A3006 RMK AO2 T00271048
KOLY 151915Z AUTO 26009KT 10SM BKN035 BKN043 OVC060 03/M05 A3006 RMK AO2 T00261047
KOLY 151855Z AUTO 27010KT 10SM SCT032 SCT038 OVC060 03/M05 A3006 RMK AO2 T00301047
KOLY 151835Z AUTO 26008KT 10SM BKN032 BKN044 OVC060 03/M05 A3007 RMK AO2 T00271051
KOLY 151815Z AUTO 27011KT 10SM SCT045 OVC060 03/M05 A3007 RMK AO2 T00261053
KOLY 151755Z AUTO 26009KT 10SM SCT034 OVC060 03/M05 A3008 RMK AO2 T00251055 10025 21035
KOLY 151735Z AUTO 26009KT 10SM BKN034 OVC042 02/M06 A3009 RMK AO2 T00201057
KOLY 151715Z AUTO 26006KT 10SM BKN042 OVC060 02/M06 A3010 RMK AO2 T00191058
KOLY 151655Z AUTO 24007KT 10SM SCT040 OVC060 01/M06 A3011 RMK AO2 T00141061
KOLY 151635Z AUTO 24007KT 10SM BKN040 OVC060 01/M06 A3012 RMK AO2 T00101062
KOLY 151615Z AUTO 23007KT 200V260 10SM SCT042 OVC060 01/M06 A3012 RMK AO2 T00051064
KOLY 151555Z AUTO 24007KT 200V260 10SM OVC060 00/M07 A3012 RMK AO2 T00001066
KOLY 151535Z AUTO 23005KT 10SM OVC050 M01/M07 A3012 RMK AO2 T10071066
KOLY 151515Z AUTO 22003KT 10SM OVC050 M01/M07 A3012 RMK AO2 T10101066
KOLY 151455Z AUTO 23004KT 10SM OVC050 M01/M07 A3011 RMK AO2 T10121070
KOLY 151435Z AUTO 23004KT 10SM OVC050 M01/M07 A3011 RMK AO2 T10151070
KOLY 151415Z AUTO 00000KT 10SM BKN050 M02/M07 A3011 RMK AO2 T10171069
KOLY 151355Z AUTO 00000KT 10SM CLR M03/M07 A3010 RMK AO2 T10271070
KOLY 151335Z AUTO 00000KT 10SM CLR M03/M07 A3010 RMK AO2 T10351075
KOLY 151315Z AUTO 00000KT 10SM CLR M03/M08 A3009 RMK AO2 T10321080
KOLY 151255Z AUTO 25003KT 10SM SCT032 M03/M08 A3010 RMK AO2 T10281078
KOLY 151235Z AUTO 25004KT 10SM OVC032 M02/M08 A3010 RMK AO2 T10211079
KOLY 151215Z AUTO 27006KT 10SM OVC030 M02/M08 A3011 RMK AO2 T10201078
KOLY 151155Z AUTO 25006KT 10SM OVC030 M02/M08 A3010 RMK AO2 T10201082 11015 21020
KOLY 151135Z AUTO 27005KT 10SM OVC030 M02/M08 A3009 RMK AO2 T10201082
KOLY 151115Z AUTO 27008KT 10SM OVC030 M02/M08 A3009 RMK AO2 T10201082
KOLY 151055Z AUTO 27007KT 10SM OVC030 M02/M08 A3009 RMK AO2 T10201077
KOLY 151035Z AUTO 28006KT 10SM OVC030 M02/M07 A3008 RMK AO2 T10201070
KOLY 151015Z AUTO 25004KT 10SM OVC030 M02/M07 A3009 RMK AO2
KOLY 150955Z AUTO 26004KT 10SM OVC032 M02/M07 A3010 RMK AO2 T10201070
KOLY 150935Z AUTO 27004KT 10SM OVC034 M02/M07 A3010 RMK AO2 T10201070
KOLY 150915Z AUTO 26004KT 10SM OVC034 M02/M07 A3010 RMK AO2 T10201070
KOLY 150855Z AUTO 26003KT 10SM OVC034 M02/M07 A3009 RMK AO2 T10201067
KOLY 150835Z AUTO 27004KT 10SM OVC034 M02/M07 A3010 RMK AO2 T10201070
KOLY 150815Z AUTO 26003KT 10SM OVC034 M02/M07 A3009 RMK AO2 T10201071
KOLY 150755Z AUTO 27004KT 10SM OVC034 M02/M07 A3010 RMK AO2 T10191073
KOLY 150735Z AUTO 28003KT 10SM OVC036 M02/M06 A3010 RMK AO2 T10201065
KOLY 150715Z AUTO 29003KT 10SM OVC036 M02/M07 A3009 RMK AO2 T10191066
KOLY 150655Z AUTO 31004KT 10SM OVC036 M02/M07 A3009 RMK AO2 T10171070
KOLY 150635Z AUTO 30006KT 10SM OVC036 M02/M07 A3009 RMK AO2 T10171070
KOLY 150615Z AUTO 29005KT 10SM OVC036 M01/M06 A3010 RMK AO2 T10151059
KOLY 150555Z AUTO 31005KT 10SM OVC036 M01/M07 A3011 RMK AO2 T10151066 11006 21015 400181045
KOLY 150535Z AUTO 30007KT 10SM OVC036 M01/M06 A3012 RMK AO2 T10121065
KOLY 150515Z AUTO 28005KT 10SM OVC036 M01/M06 A3012 RMK AO2 T10131061
KOLY 150455Z AUTO 27004KT 10SM OVC036 M01/M06 A3012 RMK AO2 T10121065
KOLY 150435Z AUTO 28003KT 10SM OVC036 M01/M06 A3012 RMK AO2 T10121060
KOLY 150415Z AUTO 29003KT 10SM OVC038 M01/M06 A3012 RMK AO2 T10141056
KOLY 150355Z AUTO 28003KT 10SM OVC038 M01/M05 A3012 RMK AO2 T10131053
KOLY 150335Z AUTO 30003KT 10SM OVC038 M01/M05 A3012 RMK AO2 T10121046
KOLY 150315Z AUTO 31003KT 10SM OVC038 M01/M05 A3012 RMK AO2 T10111048
KOLY 150255Z AUTO 30003KT 10SM OVC038 M01/M04 A3012 RMK AO2 T10121043
KOLY 150235Z AUTO 00000KT 10SM OVC038 M01/M06 A3012 RMK AO2 T10101057
KOLY 150215Z AUTO 00000KT 10SM OVC038 M01/M06 A3012 RMK AO2 T10081063
KOLY 150155Z AUTO 00000KT 10SM OVC038 M01/M06 A3012 RMK AO2 T10101059
KOLY 150135Z AUTO 36003KT 10SM OVC036 M01/M05 A3012 RMK AO2 T10101050
KOLY 150115Z AUTO 00000KT 10SM OVC036 M01/M05 A3012 RMK AO2 T10081049
KOLY 150055Z AUTO 00000KT 10SM OVC036 M01/M05 A3012 RMK AO2 T10081054
KOLY 150035Z AUTO 00000KT 10SM OVC036 M01/M05 A3012 RMK AO2 T10081051
KOLY 150015Z AUTO 00000KT 10SM OVC034 M01/M06 A3011 RMK AO2 T10071056
KOLY 142355Z AUTO 00000KT 10SM OVC034 M01/M06 A3010 RMK AO2 T10071056 10003 21007
KOLY 142335Z AUTO 00000KT 10SM OVC034 00/M06 A3010 RMK AO2 T10051065
KOLY 142315Z AUTO 00000KT 10SM OVC034 00/M06 A3010 RMK AO2 T10051060
KOLY 142255Z AUTO 30003KT 10SM OVC034 00/M07 A3010 RMK AO2 T10031067
KOLY 142235Z AUTO 28004KT 10SM OVC032 00/M07 A3011 RMK AO2 T10011073
KOLY 142215Z AUTO 28003KT 10SM OVC032 00/M07 A3010 RMK AO2 T00001074
KOLY 142155Z AUTO 29004KT 10SM OVC032 00/M08 A3009 RMK AO2 T00001078
KOLY 142135Z AUTO 30003KT 10SM OVC032 00/M08 A3008 RMK AO2 T00001082
KOLY 142115Z AUTO 00000KT 10SM OVC032 00/M08 A3008 RMK AO2 T00001083
KOLY 142055Z AUTO 31003KT 10SM OVC032 00/M08 A3007 RMK AO2 T00001083
KOLY 142035Z AUTO 00000KT 10SM OVC032 00/M08 A3006 RMK AO2 T00001083
KOLY 142015Z AUTO 00000KT 10SM OVC032 00/M08 A3007 RMK AO2 T00001085
KOLY 141955Z AUTO 01003KT 10SM OVC032 00/M08 A3007 RMK AO2 T00011081
KOLY 141935Z AUTO 35003KT 10SM BKN030 OVC035 00/M08 A3007 RMK AO2 T00011078
KOLY 141915Z AUTO 36004KT 10SM OVC029 00/M08 A3007 RMK AO2 T00011078
KOLY 141855Z AUTO 36004KT 10SM BKN027 OVC037 00/M08 A3007 RMK AO2 T00001077
KOLY 141835Z AUTO 33006KT 10SM SCT027 OVC037 00/M08 A3007 RMK AO2 T00001077
KOLY 141815Z AUTO 35006KT 10SM SCT025 OVC037 00/M07 A3008 RMK AO2 T00001074
KOLY 141755Z AUTO 36005KT 10SM SCT025 OVC035 00/M07 A3008 RMK AO2 T00001075 10000 21045
KOLY 141735Z AUTO 36006KT 10SM OVC035 M01/M08 A3008 RMK AO2 T10061076
KOLY 141715Z AUTO 35005KT 10SM OVC035 M01/M08 A3008 RMK AO2 T10061076
KOLY 141655Z AUTO 35007KT 10SM OVC035 M01/M08 A3009 RMK AO2 T10081076
KOLY 141635Z AUTO 34008KT 10SM OVC035 M01/M08 A3009 RMK AO2 T10111076
KOLY 141615Z AUTO 36007KT 10SM OVC035 M01/M07 A3009 RMK AO2 T10071075
KOLY 141555Z AUTO 33008KT 10SM OVC035 M01/M08 A3009 RMK AO2 T10111076
KOLY 141535Z AUTO 33009KT 10SM OVC035 M01/M08 A3008 RMK AO2 T10151076
KOLY 141515Z AUTO 32009KT 10SM OVC035 M01/M07 A3007 RMK AO2 T10151075
KOLY 141455Z AUTO 31006KT 10SM OVC035 M02/M07 A3006 RMK AO2 T10171073
KOLY 141435Z AUTO 30006KT 10SM OVC035 M02/M07 A3005 RMK AO2 T10201066
KOLY 141415Z AUTO 29004KT 10SM OVC035 M02/M06 A3005 RMK AO2 T10231065
KOLY 141355Z AUTO 28004KT 10SM OVC035 M03/M07 A3004 RMK AO2 T10261067
KOLY 141335Z AUTO 29004KT 10SM SCT035 M03/M07 A3003 RMK AO2 T10351067
KOLY 141315Z AUTO 27003KT 10SM SCT029 M03/M07 A3002 RMK AO2 T10351073
KOLY 141255Z AUTO 30005KT 10SM BKN029 M04/M06 A3001 RMK AO2 T10381062
KOLY 141235Z AUTO 32003KT 10SM SCT029 M04/M07 A3000 RMK AO2 T10391073
KOLY 141215Z AUTO 35004KT 10SM SCT031 M03/M08 A3000 RMK AO2 T10321080
KOLY 141155Z AUTO 35006KT 10SM BKN031 M03/M08 A2998 RMK AO2 7//// T10271082 10018 21027
KOLY 141135Z AUTO 36008KT 10SM OVC031 M02/M08 A2997 RMK AO2 T10241083
KOLY 141115Z AUTO 36010KT 10SM OVC033 M02/M08 A2997 RMK AO2 T10201085
KOLY 141055Z AUTO 36012G17KT 10SM OVC033 M02/M08 A2995 RMK AO2 T10161085
KOLY 141035Z AUTO 34009KT 10SM OVC031 M01/M08 A2995 RMK AO2 T10151085
KOLY 141015Z AUTO 35007KT 10SM OVC031 M01/M08 A2996 RMK AO2 T10121085
KOLY 140955Z AUTO 35008KT 10SM OVC029 M01/M08 A2995 RMK AO2 T10101084